createdAt,value
2023-01-25T00:00:53.350Z,4.66
2023-01-25T00:01:53.870Z,4.62
2023-01-25T00:02:53.506Z,4.62
2023-01-25T00:03:53.396Z,4.6
2023-01-25T00:04:53.666Z,4.58
2023-01-25T00:05:53.675Z,4.56
2023-01-25T00:06:53.481Z,4.66
2023-01-25T00:07:53.748Z,4.56
2023-01-25T00:08:53.701Z,4.62
2023-01-25T00:09:53.786Z,4.56
2023-01-25T00:10:53.711Z,4.55
2023-01-25T00:11:53.227Z,4.56
2023-01-25T00:12:53.758Z,4.66
2023-01-25T00:13:53.749Z,4.66
2023-01-25T00:14:53.539Z,4.6
2023-01-25T00:15:53.849Z,4.58
2023-01-25T00:16:54.138Z,4.6
2023-01-25T00:17:53.817Z,4.59
2023-01-25T00:18:53.837Z,4.56
2023-01-25T00:19:53.915Z,4.62
2023-01-25T00:20:53.621Z,4.67
2023-01-25T00:21:53.904Z,4.62
2023-01-25T00:22:53.649Z,4.55
2023-01-25T00:23:54.073Z,4.55
2023-01-25T00:24:53.648Z,4.58
2023-01-25T00:25:53.921Z,4.62
2023-01-25T00:26:53.953Z,4.6
2023-01-25T00:27:53.966Z,4.62
2023-01-25T00:28:53.971Z,4.56
2023-01-25T00:29:53.750Z,4.6
2023-01-25T00:30:53.738Z,4.56
2023-01-25T00:31:54.419Z,4.62
2023-01-25T00:32:53.924Z,4.59
2023-01-25T00:33:54.047Z,4.62
2023-01-25T00:34:54.110Z,4.58
2023-01-25T00:35:54.057Z,4.63
2023-01-25T00:36:54.068Z,4.56
2023-01-25T00:37:54.094Z,4.59
2023-01-25T00:38:53.860Z,4.59
2023-01-25T00:39:53.739Z,4.6
2023-01-25T00:40:54.126Z,4.58
2023-01-25T00:41:54.134Z,4.58
2023-01-25T00:42:53.902Z,4.56
2023-01-25T00:43:54.373Z,4.63
2023-01-25T00:44:53.928Z,4.56
2023-01-25T00:45:54.511Z,4.6
2023-01-25T00:46:54.222Z,4.63
2023-01-25T00:47:53.724Z,4.6
2023-01-25T00:48:53.960Z,4.55
2023-01-25T00:49:54.235Z,4.59
2023-01-25T00:50:54.005Z,4.53
2023-01-25T00:51:54.281Z,4.53
2023-01-25T00:52:54.024Z,4.56
2023-01-25T00:53:54.301Z,4.59
2023-01-25T00:54:54.340Z,4.59
2023-01-25T00:55:54.092Z,4.55
2023-01-25T00:56:54.332Z,4.58
2023-01-25T00:57:54.090Z,4.58
2023-01-25T00:58:54.106Z,4.59
2023-01-25T00:59:54.388Z,4.56
2023-01-25T01:00:54.569Z,4.52
2023-01-25T01:01:54.664Z,4.58
2023-01-25T01:02:54.471Z,4.58
2023-01-25T01:03:54.182Z,4.55
2023-01-25T01:04:54.844Z,4.56
2023-01-25T01:05:54.449Z,4.6
2023-01-25T01:06:54.213Z,4.56
2023-01-25T01:07:54.485Z,4.58
2023-01-25T01:08:54.328Z,4.6
2023-01-25T01:09:54.508Z,4.59
2023-01-25T01:10:54.725Z,4.59
2023-01-25T01:11:54.306Z,4.63
2023-01-25T01:12:54.567Z,4.62
2023-01-25T01:13:54.332Z,4.59
2023-01-25T01:14:54.575Z,4.58
2023-01-25T01:15:54.587Z,4.56
2023-01-25T01:16:57.053Z,4.56
2023-01-25T01:17:54.631Z,4.63
2023-01-25T01:18:54.654Z,4.56
2023-01-25T01:19:54.636Z,4.58
2023-01-25T01:20:54.413Z,4.55
2023-01-25T01:21:54.688Z,4.58
2023-01-25T01:22:54.673Z,4.56
2023-01-25T01:23:54.949Z,4.55
2023-01-25T01:24:54.709Z,4.59
2023-01-25T01:25:54.721Z,4.55
2023-01-25T01:26:54.858Z,4.63
2023-01-25T01:27:54.806Z,4.58
2023-01-25T01:28:54.535Z,4.55
2023-01-25T01:29:54.792Z,4.56
2023-01-25T01:30:54.784Z,4.58
2023-01-25T01:31:55.240Z,4.52
2023-01-25T01:32:55.367Z,4.56
2023-01-25T01:33:54.569Z,4.53
2023-01-25T01:34:54.886Z,4.6
2023-01-25T01:35:54.595Z,4.58
2023-01-25T01:36:54.615Z,4.52
2023-01-25T01:37:54.471Z,4.59
2023-01-25T01:38:54.904Z,4.52
2023-01-25T01:39:54.926Z,4.56
2023-01-25T01:40:54.919Z,4.56
2023-01-25T01:41:54.926Z,4.59
2023-01-25T01:42:54.714Z,4.59
2023-01-25T01:43:54.991Z,4.52
2023-01-25T01:44:54.747Z,4.59
2023-01-25T01:45:55.241Z,4.55
2023-01-25T01:46:55.034Z,4.56
2023-01-25T01:47:55.003Z,4.58
2023-01-25T01:48:55.027Z,4.59
2023-01-25T01:49:55.365Z,4.56
2023-01-25T01:50:55.251Z,4.53
2023-01-25T01:51:55.071Z,4.58
2023-01-25T01:52:55.081Z,4.59
2023-01-25T01:53:55.089Z,4.52
2023-01-25T01:54:55.122Z,4.5
2023-01-25T01:55:55.118Z,4.6
2023-01-25T01:56:55.155Z,4.48
2023-01-25T01:57:54.898Z,4.52
2023-01-25T01:58:55.223Z,4.6
2023-01-25T01:59:55.227Z,4.55
2023-01-25T02:00:55.331Z,4.6
2023-01-25T02:01:54.945Z,4.5
2023-01-25T02:02:55.590Z,4.56
2023-01-25T02:03:55.303Z,4.53
2023-01-25T02:04:55.246Z,4.55
2023-01-25T02:05:55.331Z,4.56
2023-01-25T02:06:55.293Z,4.55
2023-01-25T02:07:55.117Z,4.53
2023-01-25T02:08:55.298Z,4.55
2023-01-25T02:09:55.331Z,4.53
2023-01-25T02:10:55.320Z,4.56
2023-01-25T02:11:55.351Z,4.56
2023-01-25T02:12:55.362Z,4.55
2023-01-25T02:13:55.110Z,4.45
2023-01-25T02:14:55.413Z,4.5
2023-01-25T02:15:55.646Z,4.56
2023-01-25T02:16:55.435Z,4.59
2023-01-25T02:17:55.437Z,4.56
2023-01-25T02:18:55.182Z,4.52
2023-01-25T02:19:55.503Z,4.56
2023-01-25T02:20:56.738Z,4.56
2023-01-25T02:21:55.220Z,4.55
2023-01-25T02:22:55.522Z,4.59
2023-01-25T02:23:55.653Z,4.48
2023-01-25T02:24:55.246Z,4.58
2023-01-25T02:25:55.523Z,4.59
2023-01-25T02:26:55.258Z,4.53
2023-01-25T02:27:55.532Z,4.53
2023-01-25T02:28:55.561Z,4.44
2023-01-25T02:29:55.535Z,4.5
2023-01-25T02:30:55.742Z,4.52
2023-01-25T02:31:55.889Z,4.52
2023-01-25T02:32:55.386Z,4.52
2023-01-25T02:33:55.638Z,4.45
2023-01-25T02:34:55.950Z,4.49
2023-01-25T02:35:55.683Z,4.63
2023-01-25T02:36:55.423Z,4.56
2023-01-25T02:37:55.699Z,4.5
2023-01-25T02:38:55.733Z,4.56
2023-01-25T02:39:55.728Z,4.53
2023-01-25T02:40:55.718Z,4.6
2023-01-25T02:41:55.782Z,4.5
2023-01-25T02:42:55.750Z,4.56
2023-01-25T02:43:55.263Z,4.58
2023-01-25T02:44:55.785Z,4.53
2023-01-25T02:45:55.474Z,4.53
2023-01-25T02:46:55.933Z,4.52
2023-01-25T02:47:55.841Z,4.58
2023-01-25T02:48:55.582Z,4.49
2023-01-25T02:49:55.336Z,4.5
2023-01-25T02:50:55.854Z,4.5
2023-01-25T02:51:55.622Z,4.49
2023-01-25T02:52:55.902Z,4.53
2023-01-25T02:53:55.638Z,4.49
2023-01-25T02:54:55.933Z,4.49
2023-01-25T02:55:55.410Z,4.5
2023-01-25T02:56:55.683Z,4.45
2023-01-25T02:57:55.678Z,4.48
2023-01-25T02:58:55.845Z,4.52
2023-01-25T02:59:55.987Z,4.52
2023-01-25T03:00:56.001Z,4.56
2023-01-25T03:01:56.071Z,4.52
2023-01-25T03:02:56.300Z,4.49
2023-01-25T03:03:55.821Z,4.48
2023-01-25T03:04:56.286Z,4.48
2023-01-25T03:05:56.078Z,4.5
2023-01-25T03:06:56.072Z,4.48
2023-01-25T03:07:55.557Z,4.52
2023-01-25T03:08:55.841Z,4.58
2023-01-25T03:09:56.128Z,4.5
2023-01-25T03:10:55.903Z,4.55
2023-01-25T03:11:56.135Z,4.5
2023-01-25T03:12:56.134Z,4.5
2023-01-25T03:13:56.161Z,4.48
2023-01-25T03:14:56.175Z,4.52
2023-01-25T03:15:56.065Z,4.53
2023-01-25T03:16:56.213Z,4.48
2023-01-25T03:17:56.278Z,4.52
2023-01-25T03:18:56.235Z,4.49
2023-01-25T03:19:56.278Z,4.52
2023-01-25T03:20:56.016Z,4.56
2023-01-25T03:21:56.031Z,4.53
2023-01-25T03:22:56.267Z,4.59
2023-01-25T03:23:56.204Z,4.56
2023-01-25T03:24:56.327Z,4.59
2023-01-25T03:25:56.330Z,4.52
2023-01-25T03:26:56.347Z,4.52
2023-01-25T03:27:56.481Z,4.45
2023-01-25T03:28:56.352Z,4.5
2023-01-25T03:29:56.386Z,4.53
2023-01-25T03:30:56.434Z,4.48
2023-01-25T03:31:56.728Z,4.49
2023-01-25T03:32:56.140Z,4.52
2023-01-25T03:33:56.457Z,4.49
2023-01-25T03:34:56.942Z,4.52
2023-01-25T03:35:56.394Z,4.5
2023-01-25T03:36:55.934Z,4.5
2023-01-25T03:37:56.486Z,4.5
2023-01-25T03:38:56.329Z,4.53
2023-01-25T03:39:56.512Z,4.45
2023-01-25T03:40:56.890Z,4.52
2023-01-25T03:41:56.607Z,4.49
2023-01-25T03:42:56.564Z,4.45
2023-01-25T03:43:56.554Z,4.48
2023-01-25T03:44:56.613Z,4.48
2023-01-25T03:45:56.574Z,4.52
2023-01-25T03:46:56.910Z,4.56
2023-01-25T03:47:56.369Z,4.45
2023-01-25T03:48:56.630Z,4.49
2023-01-25T03:49:56.420Z,4.48
2023-01-25T03:50:56.678Z,4.55
2023-01-25T03:51:56.690Z,4.55
2023-01-25T03:52:56.676Z,4.5
2023-01-25T03:53:56.698Z,4.5
2023-01-25T03:54:56.464Z,4.52
2023-01-25T03:55:56.720Z,4.5
2023-01-25T03:56:56.738Z,4.53
2023-01-25T03:57:56.497Z,4.5
2023-01-25T03:58:56.521Z,4.41
2023-01-25T03:59:56.771Z,4.55
2023-01-25T04:00:56.749Z,4.52
2023-01-25T04:01:56.998Z,4.45
2023-01-25T04:02:56.595Z,4.56
2023-01-25T04:03:56.834Z,4.53
2023-01-25T04:04:56.828Z,4.41
2023-01-25T04:05:56.862Z,4.53
2023-01-25T04:06:56.653Z,4.55
2023-01-25T04:07:56.940Z,4.55
2023-01-25T04:08:56.926Z,4.55
2023-01-25T04:09:56.420Z,4.5
2023-01-25T04:10:56.938Z,4.55
2023-01-25T04:11:56.714Z,4.55
2023-01-25T04:12:56.982Z,4.56
2023-01-25T04:13:56.709Z,4.44
2023-01-25T04:14:56.731Z,4.5
2023-01-25T04:15:57.032Z,4.53
2023-01-25T04:16:56.963Z,4.56
2023-01-25T04:17:56.763Z,4.49
2023-01-25T04:18:57.044Z,4.41
2023-01-25T04:19:57.078Z,4.45
2023-01-25T04:20:57.060Z,4.52
2023-01-25T04:21:57.067Z,4.53
2023-01-25T04:22:56.852Z,4.5
2023-01-25T04:23:57.437Z,4.44
2023-01-25T04:24:57.105Z,4.55
2023-01-25T04:25:57.191Z,4.55
2023-01-25T04:26:57.128Z,4.41
2023-01-25T04:27:56.943Z,4.44
2023-01-25T04:28:56.891Z,4.55
2023-01-25T04:29:56.908Z,4.55
2023-01-25T04:30:56.974Z,4.53
2023-01-25T04:31:57.553Z,4.53
2023-01-25T04:32:57.280Z,4.53
2023-01-25T04:33:57.374Z,4.55
2023-01-25T04:34:57.299Z,4.41
2023-01-25T04:35:57.146Z,4.53
2023-01-25T04:36:57.258Z,4.42
2023-01-25T04:37:56.749Z,4.44
2023-01-25T04:38:57.314Z,4.5
2023-01-25T04:39:57.347Z,4.52
2023-01-25T04:40:57.071Z,4.45
2023-01-25T04:41:57.098Z,4.52
2023-01-25T04:42:57.121Z,4.42
2023-01-25T04:43:57.099Z,4.45
2023-01-25T04:44:57.117Z,4.42
2023-01-25T04:45:57.347Z,4.44
2023-01-25T04:46:57.537Z,4.52
2023-01-25T04:47:57.395Z,4.55
2023-01-25T04:48:57.422Z,4.42
2023-01-25T04:49:57.431Z,4.45
2023-01-25T04:50:57.438Z,4.56
2023-01-25T04:51:57.475Z,4.55
2023-01-25T04:52:57.276Z,4.42
2023-01-25T04:53:57.494Z,4.41
2023-01-25T04:54:57.266Z,4.4
2023-01-25T04:55:57.570Z,4.41
2023-01-25T04:56:57.563Z,4.42
2023-01-25T04:57:57.282Z,4.44
2023-01-25T04:58:57.553Z,4.56
2023-01-25T04:59:57.585Z,4.48
2023-01-25T05:00:57.527Z,4.48
2023-01-25T05:01:57.623Z,4.41
2023-01-25T05:02:57.638Z,4.42
2023-01-25T05:03:57.368Z,4.5
2023-01-25T05:04:57.386Z,4.48
2023-01-25T05:05:57.658Z,4.4
2023-01-25T05:06:57.396Z,4.4
2023-01-25T05:07:57.700Z,4.42
2023-01-25T05:08:57.417Z,4.41
2023-01-25T05:09:57.437Z,4.42
2023-01-25T05:10:57.746Z,4.38
2023-01-25T05:11:57.757Z,4.4
2023-01-25T05:12:57.747Z,4.44
2023-01-25T05:13:57.763Z,4.48
2023-01-25T05:14:57.755Z,4.42
2023-01-25T05:15:57.793Z,4.41
2023-01-25T05:16:58.064Z,4.48
2023-01-25T05:17:57.540Z,4.41
2023-01-25T05:18:57.818Z,4.41
2023-01-25T05:19:57.868Z,4.45
2023-01-25T05:20:57.573Z,4.41
2023-01-25T05:21:57.614Z,4.4
2023-01-25T05:22:57.861Z,4.38
2023-01-25T05:23:57.764Z,4.45
2023-01-25T05:24:57.894Z,4.48
2023-01-25T05:25:57.913Z,4.38
2023-01-25T05:26:57.677Z,4.42
2023-01-25T05:27:57.971Z,4.41
2023-01-25T05:28:57.953Z,4.38
2023-01-25T05:29:57.961Z,4.42
2023-01-25T05:30:57.963Z,4.4
2023-01-25T05:31:57.883Z,4.42
2023-01-25T05:32:57.776Z,4.4
2023-01-25T05:33:58.025Z,4.4
2023-01-25T05:34:59.985Z,4.4
2023-01-25T05:35:57.782Z,4.44
2023-01-25T05:36:57.528Z,4.4
2023-01-25T05:37:58.075Z,4.4
2023-01-25T05:38:58.083Z,4.41
2023-01-25T05:39:58.110Z,4.41
2023-01-25T05:40:58.102Z,4.41
2023-01-25T05:41:58.153Z,4.44
2023-01-25T05:42:58.166Z,4.42
2023-01-25T05:43:58.163Z,4.42
2023-01-25T05:44:58.165Z,4.38
2023-01-25T05:45:57.889Z,4.44
2023-01-25T05:46:58.191Z,4.4
2023-01-25T05:47:58.199Z,4.4
2023-01-25T05:48:58.244Z,4.4
2023-01-25T05:49:58.229Z,4.45
2023-01-25T05:50:58.007Z,4.45
2023-01-25T05:51:57.978Z,4.41
2023-01-25T05:52:58.256Z,4.42
2023-01-25T05:53:58.279Z,4.42
2023-01-25T05:54:58.303Z,4.38
2023-01-25T05:55:58.325Z,4.41
2023-01-25T05:56:58.061Z,4.42
2023-01-25T05:57:58.332Z,4.41
2023-01-25T05:58:58.253Z,4.41
2023-01-25T05:59:58.388Z,4.45
2023-01-25T06:00:57.848Z,4.44
2023-01-25T06:01:58.399Z,4.4
2023-01-25T06:02:58.962Z,4.38
2023-01-25T06:03:58.415Z,4.4
2023-01-25T06:04:58.184Z,4.41
2023-01-25T06:05:58.210Z,4.38
2023-01-25T06:06:58.219Z,4.41
2023-01-25T06:07:58.451Z,4.4
2023-01-25T06:08:58.570Z,4.4
2023-01-25T06:09:58.509Z,4.41
2023-01-25T06:10:58.253Z,4.41
2023-01-25T06:11:58.268Z,4.41
2023-01-25T06:12:58.543Z,4.44
2023-01-25T06:13:58.555Z,4.44
2023-01-25T06:14:58.734Z,4.49
2023-01-25T06:15:58.833Z,4.44
2023-01-25T06:16:58.595Z,4.44
2023-01-25T06:17:58.638Z,4.45
2023-01-25T06:18:58.616Z,4.42
2023-01-25T06:19:58.616Z,4.42
2023-01-25T06:20:58.669Z,4.44
2023-01-25T06:21:58.413Z,4.42
2023-01-25T06:22:58.682Z,4.41
2023-01-25T06:23:58.893Z,4.34
2023-01-25T06:24:58.453Z,4.38
2023-01-25T06:25:58.711Z,4.45
2023-01-25T06:26:58.717Z,4.45
2023-01-25T06:27:58.500Z,4.41
2023-01-25T06:28:58.739Z,4.38
2023-01-25T06:29:58.511Z,4.44
2023-01-25T06:30:58.955Z,4.44
2023-01-25T06:31:58.979Z,4.42
2023-01-25T06:32:58.537Z,4.4
2023-01-25T06:33:59.937Z,4.4
2023-01-25T06:34:58.599Z,4.44
2023-01-25T06:35:58.819Z,4.48
2023-01-25T06:36:58.829Z,4.44
2023-01-25T06:37:58.853Z,4.38
2023-01-25T06:38:58.909Z,4.42
2023-01-25T06:39:58.383Z,4.38
2023-01-25T06:40:58.898Z,4.44
2023-01-25T06:41:58.653Z,4.44
2023-01-25T06:42:58.912Z,4.45
2023-01-25T06:43:58.949Z,4.41
2023-01-25T06:44:58.966Z,4.49
2023-01-25T06:45:58.693Z,4.41
2023-01-25T06:46:58.989Z,4.44
2023-01-25T06:47:59.014Z,4.37
2023-01-25T06:48:58.994Z,4.41
2023-01-25T06:49:59.012Z,4.41
2023-01-25T06:50:58.777Z,4.44
2023-01-25T06:51:58.773Z,4.48
2023-01-25T06:52:59.058Z,4.37
2023-01-25T06:53:59.064Z,4.42
2023-01-25T06:54:59.094Z,4.44
2023-01-25T06:55:59.088Z,4.41
2023-01-25T06:56:59.733Z,4.42
2023-01-25T06:57:59.118Z,4.37
2023-01-25T06:58:59.127Z,4.38
2023-01-25T06:59:59.148Z,4.42
2023-01-25T07:00:59.229Z,4.4
2023-01-25T07:01:59.425Z,4.41
2023-01-25T07:02:59.462Z,4.32
2023-01-25T07:03:59.016Z,4.41
2023-01-25T07:04:59.315Z,4.42
2023-01-25T07:05:59.290Z,4.42
2023-01-25T07:06:59.235Z,4.32
2023-01-25T07:07:59.272Z,4.41
2023-01-25T07:08:59.259Z,4.35
2023-01-25T07:09:59.033Z,4.44
2023-01-25T07:10:59.055Z,4.37
2023-01-25T07:11:59.309Z,4.42
2023-01-25T07:12:59.314Z,4.31
2023-01-25T07:13:59.370Z,4.32
2023-01-25T07:14:59.142Z,4.4
2023-01-25T07:15:59.361Z,4.35
2023-01-25T07:16:59.107Z,4.28
2023-01-25T07:18:15.827Z,4.38
2023-01-25T07:18:59.518Z,4.31
2023-01-25T07:19:59.178Z,4.44
2023-01-25T07:20:59.650Z,4.41
2023-01-25T07:21:59.175Z,4.37
2023-01-25T07:23:01.868Z,4.53
2023-01-25T07:23:59.660Z,4.32
2023-01-25T07:24:59.467Z,4.41
2023-01-25T07:25:59.244Z,4.44
2023-01-25T07:26:59.543Z,4.4
2023-01-25T07:27:59.509Z,4.41
2023-01-25T07:28:59.531Z,4.4
2023-01-25T07:29:59.544Z,4.37
2023-01-25T07:30:59.306Z,4.32
2023-01-25T07:31:59.725Z,4.37
2023-01-25T07:32:59.580Z,4.32
2023-01-25T07:33:59.348Z,4.48
2023-01-25T07:34:59.940Z,4.35
2023-01-25T07:35:59.667Z,4.38
2023-01-25T07:36:59.632Z,4.34
2023-01-25T07:37:59.786Z,4.38
2023-01-25T07:38:59.730Z,4.37
2023-01-25T07:39:59.675Z,4.35
2023-01-25T07:40:59.684Z,4.35
2023-01-25T07:41:59.426Z,4.35
2023-01-25T07:42:59.762Z,4.32
2023-01-25T07:43:59.473Z,4.31
2023-01-25T07:44:59.505Z,4.4
2023-01-25T07:45:59.748Z,4.34
2023-01-25T07:46:59.773Z,4.35
2023-01-25T07:47:59.790Z,4.34
2023-01-25T07:49:00.001Z,4.32
2023-01-25T07:49:59.811Z,4.31
2023-01-25T07:50:59.633Z,4.41
2023-01-25T07:51:59.867Z,4.38
2023-01-25T07:52:59.585Z,4.35
2023-01-25T07:53:59.888Z,4.35
2023-01-25T07:54:59.604Z,4.37
2023-01-25T07:55:59.878Z,4.3
2023-01-25T07:56:59.691Z,4.34
2023-01-25T07:57:59.934Z,4.35
2023-01-25T07:58:59.953Z,4.28
2023-01-25T07:59:59.664Z,4.37
2023-01-25T08:00:59.954Z,4.42
2023-01-25T08:01:59.725Z,4.32
2023-01-25T08:02:59.998Z,4.38
2023-01-25T08:03:59.510Z,4.34
2023-01-25T08:04:59.741Z,4.34
2023-01-25T08:06:00.115Z,4.34
2023-01-25T08:07:00.088Z,4.32
2023-01-25T08:08:00.107Z,4.38
2023-01-25T08:09:00.127Z,4.34
2023-01-25T08:10:00.088Z,4.34
2023-01-25T08:11:00.119Z,4.48
2023-01-25T08:12:00.101Z,4.32
2023-01-25T08:13:00.121Z,4.4
2023-01-25T08:14:00.141Z,4.42
2023-01-25T08:15:00.220Z,4.37
2023-01-25T08:16:00.191Z,4.34
2023-01-25T08:17:00.167Z,4.32
2023-01-25T08:18:00.167Z,4.3
2023-01-25T08:19:00.186Z,4.32
2023-01-25T08:20:00.210Z,4.32
2023-01-25T08:21:00.208Z,4.31
2023-01-25T08:22:00.265Z,4.31
2023-01-25T08:23:00.157Z,4.37
2023-01-25T08:24:00.505Z,4.31
2023-01-25T08:25:00.270Z,4.32
2023-01-25T08:26:00.029Z,4.48
2023-01-25T08:27:00.046Z,4.38
2023-01-25T08:28:00.531Z,4.28
2023-01-25T08:29:00.519Z,4.35
2023-01-25T08:30:00.372Z,4.37
2023-01-25T08:31:02.518Z,4.38
2023-01-25T08:32:00.538Z,4.45
2023-01-25T08:33:00.362Z,4.42
2023-01-25T08:34:00.409Z,4.28
2023-01-25T08:35:00.672Z,4.35
2023-01-25T08:36:00.437Z,4.31
2023-01-25T08:37:00.449Z,4.48
2023-01-25T08:38:00.427Z,4.37
2023-01-25T08:39:00.519Z,4.34
2023-01-25T08:40:00.628Z,4.38
2023-01-25T08:41:00.478Z,4.38
2023-01-25T08:42:00.500Z,4.37
2023-01-25T08:43:00.526Z,4.35
2023-01-25T08:44:00.571Z,4.35
2023-01-25T08:45:00.539Z,4.32
2023-01-25T08:46:00.583Z,4.41
2023-01-25T08:47:00.592Z,4.31
2023-01-25T08:48:00.569Z,4.31
2023-01-25T08:49:00.638Z,4.34
2023-01-25T08:50:00.593Z,4.3
2023-01-25T08:51:00.628Z,4.28
2023-01-25T08:52:00.664Z,4.32
2023-01-25T08:53:00.809Z,4.34
2023-01-25T08:54:00.470Z,4.31
2023-01-25T08:55:00.725Z,4.37
2023-01-25T08:56:00.700Z,4.35
2023-01-25T08:57:00.689Z,4.32
2023-01-25T08:58:02.337Z,4.37
2023-01-25T08:59:00.714Z,4.34
2023-01-25T09:00:00.778Z,4.34
2023-01-25T09:01:00.747Z,4.35
2023-01-25T09:02:00.665Z,4.34
2023-01-25T09:03:00.785Z,4.35
2023-01-25T09:04:00.883Z,4.34
2023-01-25T09:05:00.800Z,4.35
2023-01-25T09:06:00.564Z,4.37
2023-01-25T09:07:00.862Z,4.35
2023-01-25T09:08:00.880Z,4.37
2023-01-25T09:09:00.859Z,4.41
2023-01-25T09:10:00.867Z,4.38
2023-01-25T09:11:01.012Z,4.48
2023-01-25T09:12:01.165Z,4.37
2023-01-25T09:13:01.163Z,4.37
2023-01-25T09:14:00.947Z,4.3
2023-01-25T09:15:00.848Z,4.34
2023-01-25T09:16:00.680Z,4.32
2023-01-25T09:17:00.969Z,4.35
2023-01-25T09:18:00.967Z,4.48
2023-01-25T09:19:00.851Z,4.32
2023-01-25T09:20:01.047Z,4.35
2023-01-25T09:21:01.024Z,4.32
2023-01-25T09:22:00.798Z,4.32
2023-01-25T09:23:01.117Z,4.32
2023-01-25T09:24:16.413Z,4.32
2023-01-25T09:25:00.822Z,4.34
2023-01-25T09:26:01.076Z,4.37
2023-01-25T09:27:05.103Z,4.38
2023-01-25T09:28:01.160Z,4.31
2023-01-25T09:29:01.129Z,4.34
2023-01-25T09:30:18.104Z,4.35
